Wednesday, May 25, 2016
11:07 UTC
  |  Log In   |  Register Free
Airport Search:

Pike County-Hatcher Field Airport
(KPBX)

Pike County-Hatcher Field Airport Diagram
No Airport Diagram Available

FAA data valid effective Mar 31 2016 - May 26 2016 (unless otherwise noted).

 
 
 
 
 
 
 
 
 
 
 
 
 
 
Current Aviation Weather for KPBX

Weather Summary


Current weather conditions are not available for PBX - The nearest NOAA weather station is at SJS, (11.8 nm NW from PBX)

The most recent METAR observation for PBX was updated at: 12:55 UTC
METAR for KPBX is not available. Closest METAR is for KLNP
KPBX  (most recent observation was updatred at 25:10 UTC)
251055Z AUTO 14004KT 10SM CLR 14/12 A3020 RMK AO2 T01400118

KLNP  (34.5 nm NW)   (most recent observation was updated at 25:10 UTC)
251055Z AUTO 19004KT 10SM CLR 13/06 A3027 RMK AO2

TAF for KPBX is not available.
KSJS  (11.8 nm SE)   (most recent observation was updatred at 25:05 UTC)
250534Z 2506/2606 00000KT P6SM SKC FM251200 VRB03KT P6SM BKN090 FM251800 22007KT P6SM BKN050


GlobalAir.com is loading additional information.
 Current Weather at LNP
55.0 F° (13.0 C°)

North winds at 0.0 mph
Pressure:
30.25 in
Humidity:
63%
Wind:
North at 0.0 mph
Dew Point:
42.8 F° (6.0 C°)
Visibility:
10.00 mi
PBX NOAA Radar




Find All Airport Services Find A Hotel Find A Rental Car Find A Golf Course Find A Restaurant $100 Hamburger



Airport Weather Forecast for KPBX

Translated METAR for KPBX (1055 UTC)
METAR:
KPBX 251055Z AUTO 14004KT 10SM CLR 14/12 A3020 RMK AO2 T01400118
Conditions at:
KPBX (Pike County-Hatcher Field, KY) observed 1055 UTC 25 May 2016
Temperature:
14°C (57.2°F)
Dewpoint:
12°C (53.6°F) [RH = 87.7]
Pressure:
30.2 inches Hg (1022.7 mb)
Winds:
from the SE (140 degrees) at 4.6 mph (4 knots: 2.1 m/s)
Visibility:
10 mile(s)
Ceiling:
at least 12,000 feet AGL
Clouds:
Clear below 12,000 feet AGL
Remarks:
site is un-manned
site is automated and HAS a precipitation sensor

Translated TAF for KSJS (Big Sandy Rgnl, KY) (0534 UTC)
TAF text:
KSJS 250534Z 2506/2606 00000KT P6SM SKC
Forecast period:
Wednesday May 25 2016 06:00 UTC - Thursday May 26 2016 06:00 UTC
Forecast type:
FROM: standard forecast or significant change
Winds:
from the N (000 degrees) at 0 mph (0 knots: 0 m/s)
Visibility:
6 or more mile(s) (9.7+ km)
Ceiling:
at least 12,000 feet AGL
Clouds:
Clear Skies
Weather:
no significant weather observed at this time
TAF text:
FM251200 VRB03KT P6SM BKN090
Forecast period:
Wednesday May 25 2016 12:00 UTC - Wednesday May 25 2016 18:00 UTC
Forecast type:
FROM: standard forecast or significant change
Winds:
variable wind direction at 3.5 mph (3 knots: 1.5 m/s)
Visibility:
6 or more mile(s) (9.7+ km)
Ceiling:
9,000 feet AGL
Clouds:
Broken Cloud Cover at 9,000 feet AGL
Weather:
no significant weather observed at this time
TAF text:
FM251800 22007KT P6SM BKN050
Forecast period:
Wednesday May 25 2016 18:00 UTC - Thursday May 26 2016 06:00 UTC
Forecast type:
FROM: standard forecast or significant change
Winds:
from the SW (220 degrees) at 8.1 mph (7 knots: 3.6 m/s)
Visibility:
6 or more mile(s) (9.7+ km)
Ceiling:
5,000 feet AGL
Clouds:
Broken Cloud Cover at 5,000 feet AGL
Weather:
no significant weather observed at this time
FBO's on the Field
FBO Company Facility Photos Services Transportation Aviation Fuel Prices: Prices include tax
Catering Weather Repair Courtesy Rental Type 100LL JetA JetA+ MOGAS 8087
 
Pikeville-Pike Airport

This FBO has not yet been rated
FS:Shell
Last Updated: Apr-20
Login to update fuel prices
SS:
Contact Pikeville-Pike AirportMore FBO Information
 
Add another FBO Facility Photos Catering Weather Repair Courtesy Rental Type 100LL JetA JetA+ MOGAS 8087
Services Transportation Aviation Fuel Prices: Prices include tax


model-print
model-print
model-print
model-print